Time;durP1;ratioP1;P1;durP2;ratioP2;P2;SDS_P1;SDS_P2;PMS_P1;PMS_P2;Temp;Humidity;BMP_temperature;BMP_pressure;BME280_temperature;BME280_humidity;BME280_pressure;Samples;Min_cycle;Max_cycle;Signal;HPM_P1;HPM_P2
2022/01/14 00:01:06;;;;;;;;;;;-1.10;99.90;;;;;;5047770;28;20076;-72
2022/01/14 00:03:33;;;;;;;;;;;-1.10;99.90;;;;;;5049356;28;20083;-71
2022/01/14 00:06:00;;;;;;;;;;;-1.10;99.90;;;;;;5049009;28;20155;-72
2022/01/14 00:08:27;;;;;;;;;;;-1.10;99.90;;;;;;5049274;28;20236;-71
2022/01/14 00:10:56;;;;;;;;;;;-1.10;99.90;;;;;;5046923;28;20160;-71
2022/01/14 00:16:08;;;;;;;;;;;-1.10;99.90;;;;;;5044490;28;20262;-71
2022/01/14 00:18:36;;;;;;;;;;;-1.10;99.90;;;;;;5053303;28;20177;-72
2022/01/14 00:21:03;;;;;;;;;;;-1.10;99.90;;;;;;5046808;28;20058;-72
2022/01/14 00:23:34;;;;;;;;;;;-1.10;99.90;;;;;;5044399;28;20060;-72
2022/01/14 00:31:49;;;;;;;;;;;-1.10;99.90;;;;;;5045056;28;20067;-71
2022/01/14 00:34:17;;;;;;;;;;;-1.10;99.90;;;;;;5045189;28;21137;-72
2022/01/14 00:36:45;;;;;;;;;;;-1.10;99.90;;;;;;5044961;28;20051;-71
2022/01/14 00:39:13;;;;;;;;;;;-1.10;99.90;;;;;;5043946;28;20168;-71
2022/01/14 00:41:41;;;;;;;;;;;-1.00;99.90;;;;;;5045359;28;20067;-72
2022/01/14 00:44:12;;;;;;;;;;;-1.00;99.90;;;;;;5045226;28;20156;-72
2022/01/14 00:46:39;;;;;;;;;;;-1.00;99.90;;;;;;5044984;28;20290;-72
2022/01/14 00:49:06;;;;;;;;;;;-1.00;99.90;;;;;;5043758;28;20050;-73
2022/01/14 00:51:34;;;;;;;;;;;-1.00;99.90;;;;;;5044907;28;20066;-72
2022/01/14 00:54:01;;;;;;;;;;;-1.00;99.90;;;;;;5045270;28;21148;-73
2022/01/14 00:56:32;;;;;;;;;;;-1.10;99.90;;;;;;5044861;28;20063;-73
2022/01/14 00:59:16;;;;;;;;;;;-1.00;99.90;;;;;;5044149;28;20067;-73
2022/01/14 01:01:46;;;;;;;;;;;-1.00;99.90;;;;;;5045801;28;20058;-73
2022/01/14 01:04:14;;;;;;;;;;;-1.00;99.90;;;;;;5045346;28;20059;-72
2022/01/14 01:06:42;;;;;;;;;;;-1.00;99.90;;;;;;5045149;28;20274;-72
2022/01/14 01:09:12;;;;;;;;;;;-1.00;99.90;;;;;;5043980;28;20172;-71
2022/01/14 01:11:44;;;;;;;;;;;-1.00;99.90;;;;;;5044078;28;21118;-72
2022/01/14 01:14:15;;;;;;;;;;;-0.90;99.90;;;;;;5045326;28;20058;-73
2022/01/14 01:16:42;;;;;;;;;;;-0.90;99.90;;;;;;5044877;28;20545;-72
2022/01/14 01:19:11;;;;;;;;;;;-0.90;99.90;;;;;;5043525;28;20175;-71
2022/01/14 01:21:38;;;;;;;;;;;-0.80;99.90;;;;;;5044281;28;20059;-72
2022/01/14 01:24:05;;;;;;;;;;;-0.80;99.90;;;;;;5043430;28;20060;-72
2022/01/14 01:26:36;;;;;;;;;;;-0.80;99.90;;;;;;5044608;28;20088;-72
2022/01/14 01:29:18;;;;;;;;;;;-0.80;99.90;;;;;;5044156;28;20068;-73
2022/01/14 01:31:45;;;;;;;;;;;-0.70;99.90;;;;;;5044469;28;20051;-71
2022/01/14 01:34:15;;;;;;;;;;;-0.80;99.90;;;;;;5044570;28;20085;-72
2022/01/14 01:36:43;;;;;;;;;;;-0.80;99.90;;;;;;5044233;28;20060;-73
2022/01/14 01:39:11;;;;;;;;;;;-0.80;99.90;;;;;;5043502;28;20061;-71
2022/01/14 01:41:39;;;;;;;;;;;-0.90;99.90;;;;;;5044321;28;20096;-72
2022/01/14 01:44:07;;;;;;;;;;;-0.90;99.90;;;;;;5043711;28;20148;-71
2022/01/14 01:46:37;;;;;;;;;;;-0.90;99.90;;;;;;5044040;28;20211;-72
2022/01/14 01:49:05;;;;;;;;;;;-0.90;99.90;;;;;;5041922;28;20241;-73
2022/01/14 01:51:34;;;;;;;;;;;-0.90;99.90;;;;;;5043349;28;20060;-70
2022/01/14 01:54:01;;;;;;;;;;;-0.90;99.90;;;;;;5044035;28;20073;-71
2022/01/14 01:56:28;;;;;;;;;;;-0.90;99.90;;;;;;5044496;28;20207;-70
2022/01/14 01:58:56;;;;;;;;;;;-0.90;99.90;;;;;;5043296;28;20079;-71
2022/01/14 02:01:24;;;;;;;;;;;-0.90;99.90;;;;;;5042708;28;20326;-69
2022/01/14 02:03:51;;;;;;;;;;;-0.90;99.90;;;;;;5043854;28;21042;-70
2022/01/14 02:06:19;;;;;;;;;;;-0.90;99.90;;;;;;5044212;28;20160;-70
2022/01/14 02:08:47;;;;;;;;;;;-0.90;99.90;;;;;;5043223;28;20148;-70
2022/01/14 02:11:15;;;;;;;;;;;-0.90;99.90;;;;;;5043272;28;20137;-70
2022/01/14 02:13:42;;;;;;;;;;;-0.90;99.90;;;;;;5043424;28;20149;-71
2022/01/14 02:16:18;;;;;;;;;;;-0.80;99.90;;;;;;5043115;28;20059;-70
2022/01/14 02:19:10;;;;;;;;;;;-0.80;99.90;;;;;;5043543;28;20057;-70
2022/01/14 02:24:34;;;;;;;;;;;-0.80;99.90;;;;;;5044088;28;20098;-70
2022/01/14 02:27:02;;;;;;;;;;;-0.80;99.90;;;;;;5044715;28;20060;-71
2022/01/14 02:29:29;;;;;;;;;;;-0.80;99.90;;;;;;5042909;28;20161;-70
2022/01/14 02:31:57;;;;;;;;;;;-0.80;99.90;;;;;;5043133;28;20173;-71
2022/01/14 02:34:24;;;;;;;;;;;-0.70;99.90;;;;;;5044952;28;20599;-71
2022/01/14 02:36:53;;;;;;;;;;;-0.70;99.90;;;;;;5043132;28;21128;-71
2022/01/14 02:39:21;;;;;;;;;;;-0.70;99.90;;;;;;5041572;28;20347;-72
2022/01/14 02:41:49;;;;;;;;;;;-0.70;99.90;;;;;;5022083;22;20060;-70
2022/01/14 02:44:22;;;;;;;;;;;-0.70;99.90;;;;;;5001906;28;21207;-71
2022/01/14 02:46:54;;;;;;;;;;;-0.80;99.90;;;;;;5002184;28;20052;-70
2022/01/14 02:49:21;;;;;;;;;;;-0.80;99.90;;;;;;5001510;28;20141;-71
2022/01/14 02:51:48;;;;;;;;;;;-0.70;99.90;;;;;;5002231;28;21169;-70
2022/01/14 02:54:21;;;;;;;;;;;-0.70;99.90;;;;;;4985652;28;20101;-71
2022/01/14 02:56:50;;;;;;;;;;;-0.80;99.90;;;;;;4985331;28;20150;-70
2022/01/14 02:59:17;;;;;;;;;;;-0.80;99.90;;;;;;4985814;28;20051;-71
2022/01/14 03:01:45;;;;;;;;;;;-0.80;99.90;;;;;;4985329;28;20069;-71
2022/01/14 03:04:14;;;;;;;;;;;-0.80;99.90;;;;;;4985636;28;20052;-70
2022/01/14 03:06:42;;;;;;;;;;;-0.80;99.90;;;;;;4985602;28;20148;-70
2022/01/14 03:09:10;;;;;;;;;;;-0.80;99.90;;;;;;4984963;28;20075;-68
2022/01/14 03:11:44;;;;;;;;;;;-0.80;99.90;;;;;;4984605;28;21062;-70
2022/01/14 03:14:11;;;;;;;;;;;-0.70;99.90;;;;;;4988758;28;20091;-70
2022/01/14 03:16:41;;;;;;;;;;;-0.70;99.90;;;;;;5005151;28;20108;-70
2022/01/14 03:19:14;;;;;;;;;;;-0.60;99.90;;;;;;5005029;28;20153;-70
2022/01/14 03:21:42;;;;;;;;;;;-0.40;99.90;;;;;;5004276;28;20316;-69
2022/01/14 03:24:20;;;;;;;;;;;-0.30;99.90;;;;;;5004629;28;20254;-70
2022/01/14 03:26:49;;;;;;;;;;;-0.20;99.90;;;;;;5005179;28;20270;-70
2022/01/14 03:29:17;;;;;;;;;;;-0.20;99.90;;;;;;5004480;28;20061;-70
2022/01/14 03:31:44;;;;;;;;;;;-0.30;99.90;;;;;;5005016;28;20079;-70
2022/01/14 03:34:11;;;;;;;;;;;-0.40;99.90;;;;;;5004517;28;20087;-70
2022/01/14 03:36:38;;;;;;;;;;;-0.50;99.90;;;;;;5004373;28;21083;-70
2022/01/14 03:39:06;;;;;;;;;;;-0.50;99.90;;;;;;5004678;28;20153;-70
2022/01/14 03:41:33;;;;;;;;;;;-0.60;99.90;;;;;;5004552;28;20060;-70
2022/01/14 03:44:02;;;;;;;;;;;-0.70;99.90;;;;;;5005503;28;20171;-70
2022/01/14 03:46:29;;;;;;;;;;;-0.70;99.90;;;;;;5006047;28;20060;-69
2022/01/14 03:48:56;;;;;;;;;;;-0.70;99.90;;;;;;5007795;28;20060;-70
2022/01/14 03:51:24;;;;;;;;;;;-0.70;99.90;;;;;;5007447;28;21108;-71
2022/01/14 03:53:51;;;;;;;;;;;-0.70;99.90;;;;;;5008598;28;20062;-71
2022/01/14 03:56:18;;;;;;;;;;;-0.60;99.90;;;;;;5007491;28;20088;-71
2022/01/14 03:58:46;;;;;;;;;;;-0.60;99.90;;;;;;5008243;28;20068;-69
2022/01/14 04:01:14;;;;;;;;;;;-0.60;99.90;;;;;;5007481;28;20200;-71
2022/01/14 04:03:42;;;;;;;;;;;-0.60;99.90;;;;;;5007896;28;21135;-71
2022/01/14 04:06:10;;;;;;;;;;;-0.70;99.90;;;;;;5008597;28;20059;-71
2022/01/14 04:08:37;;;;;;;;;;;-0.70;99.90;;;;;;5007675;28;20303;-71
2022/01/14 04:11:05;;;;;;;;;;;-0.70;99.90;;;;;;5007269;28;21224;-70
2022/01/14 04:13:42;;;;;;;;;;;-0.70;99.90;;;;;;5007881;28;20069;-72
2022/01/14 04:16:08;;;;;;;;;;;-0.70;99.90;;;;;;5008259;28;20058;-71
2022/01/14 04:18:37;;;;;;;;;;;-0.70;99.90;;;;;;5008012;28;20048;-71
2022/01/14 04:21:04;;;;;;;;;;;-0.60;99.90;;;;;;5006984;28;20132;-72
2022/01/14 04:23:31;;;;;;;;;;;-0.60;99.90;;;;;;5007702;28;20068;-71
2022/01/14 04:25:58;;;;;;;;;;;-0.60;99.90;;;;;;5007302;28;20087;-71
2022/01/14 04:28:27;;;;;;;;;;;-0.60;99.90;;;;;;5007676;28;20084;-71
2022/01/14 04:30:54;;;;;;;;;;;-0.60;99.90;;;;;;5007380;28;20086;-73
2022/01/14 04:33:22;;;;;;;;;;;-0.60;99.90;;;;;;5008061;28;20181;-73
2022/01/14 04:35:51;;;;;;;;;;;-0.60;99.90;;;;;;5008372;28;20080;-70
2022/01/14 04:38:18;;;;;;;;;;;-0.70;99.90;;;;;;5007607;28;20060;-72
2022/01/14 04:40:45;;;;;;;;;;;-0.70;99.90;;;;;;5006764;28;20052;-70
2022/01/14 04:43:16;;;;;;;;;;;-0.70;99.90;;;;;;5006820;28;20052;-72
2022/01/14 04:45:56;;;;;;;;;;;-0.70;99.90;;;;;;5007803;28;20109;-69
2022/01/14 04:48:23;;;;;;;;;;;-0.70;99.90;;;;;;5004100;28;20175;-71
2022/01/14 04:50:53;;;;;;;;;;;-0.70;99.90;;;;;;5003134;28;20069;-71
2022/01/14 04:53:20;;;;;;;;;;;-0.70;99.90;;;;;;5005190;28;21158;-70
2022/01/14 04:55:48;;;;;;;;;;;-0.70;99.90;;;;;;5004917;28;20252;-70
2022/01/14 04:58:15;;;;;;;;;;;-0.70;99.90;;;;;;5004756;28;20069;-71
2022/01/14 05:00:42;;;;;;;;;;;-0.70;99.90;;;;;;5003302;28;20060;-71
2022/01/14 05:03:10;;;;;;;;;;;-0.60;99.90;;;;;;5004779;28;20243;-71
2022/01/14 05:05:40;;;;;;;;;;;-0.50;99.90;;;;;;5004742;28;20060;-71
2022/01/14 05:08:12;;;;;;;;;;;-0.50;99.90;;;;;;5005039;28;20059;-71
2022/01/14 05:11:00;;;;;;;;;;;-0.40;99.90;;;;;;5003848;28;20066;-71
2022/01/14 05:13:27;;;;;;;;;;;-0.50;99.90;;;;;;5004289;28;20052;-71
2022/01/14 05:15:55;;;;;;;;;;;-0.50;99.90;;;;;;5004537;28;20141;-71
2022/01/14 05:18:23;;;;;;;;;;;-0.60;99.90;;;;;;5004316;28;20091;-71
2022/01/14 05:20:50;;;;;;;;;;;-0.60;99.90;;;;;;5003514;28;20067;-70
2022/01/14 05:23:19;;;;;;;;;;;-0.60;99.90;;;;;;5004534;28;20097;-71
2022/01/14 05:25:46;;;;;;;;;;;-0.60;99.90;;;;;;5004266;28;21181;-71
2022/01/14 05:28:13;;;;;;;;;;;-0.60;99.90;;;;;;5004842;28;20170;-71
2022/01/14 05:30:41;;;;;;;;;;;-0.60;99.90;;;;;;5003195;28;20122;-71
2022/01/14 05:33:08;;;;;;;;;;;-0.60;99.90;;;;;;5004141;28;20085;-71
2022/01/14 05:35:35;;;;;;;;;;;-0.60;99.90;;;;;;5003760;28;20060;-71
2022/01/14 05:38:02;;;;;;;;;;;-0.70;99.90;;;;;;5004797;28;20060;-71
2022/01/14 05:40:31;;;;;;;;;;;-0.70;99.90;;;;;;5002421;28;21156;-71
2022/01/14 05:42:59;;;;;;;;;;;-0.70;99.90;;;;;;5004680;28;20162;-72
2022/01/14 05:45:26;;;;;;;;;;;-0.70;99.90;;;;;;5003938;28;21062;-71
2022/01/14 05:47:54;;;;;;;;;;;-0.70;99.90;;;;;;5004894;28;20084;-71
2022/01/14 05:50:22;;;;;;;;;;;-0.80;99.90;;;;;;4997249;28;20158;-71
2022/01/14 05:52:49;;;;;;;;;;;-0.70;99.90;;;;;;4989376;28;20098;-72
2022/01/14 05:55:18;;;;;;;;;;;-0.60;99.90;;;;;;4979145;28;20509;-71
2022/01/14 05:57:46;;;;;;;;;;;-0.60;99.90;;;;;;4983680;28;21327;-71
2022/01/14 06:00:15;;;;;;;;;;;-0.60;99.90;;;;;;4999085;28;20094;-71
2022/01/14 06:02:45;;;;;;;;;;;-0.60;99.90;;;;;;4981172;28;20075;-71
2022/01/14 06:05:12;;;;;;;;;;;-0.60;99.90;;;;;;4998538;28;20219;-71
2022/01/14 06:07:39;;;;;;;;;;;-0.40;99.90;;;;;;4978670;28;20083;-71
2022/01/14 06:10:06;;;;;;;;;;;-0.40;99.90;;;;;;4976155;28;21207;-70
2022/01/14 06:12:34;;;;;;;;;;;-0.30;99.90;;;;;;4998673;28;20135;-70
2022/01/14 06:15:02;;;;;;;;;;;-0.30;99.90;;;;;;4983225;28;20108;-70
2022/01/14 06:17:29;;;;;;;;;;;-0.20;99.90;;;;;;4981040;28;20162;-71
2022/01/14 06:19:57;;;;;;;;;;;-0.10;99.90;;;;;;5002018;28;21067;-70
2022/01/14 06:22:24;;;;;;;;;;;-0.10;99.90;;;;;;4997485;28;20086;-70
2022/01/14 06:24:51;;;;;;;;;;;-0.10;99.90;;;;;;4980384;28;20142;-71
2022/01/14 06:27:18;;;;;;;;;;;0.10;99.90;;;;;;5000611;28;20150;-71
2022/01/14 06:29:45;;;;;;;;;;;0.10;99.90;;;;;;4983633;28;20170;-71
2022/01/14 06:32:14;;;;;;;;;;;0.20;99.90;;;;;;4983289;28;20074;-71
2022/01/14 06:34:41;;;;;;;;;;;0.30;99.90;;;;;;4984549;28;20086;-71
2022/01/14 06:37:08;;;;;;;;;;;0.10;99.90;;;;;;4982719;28;20075;-71
2022/01/14 06:39:35;;;;;;;;;;;0.00;99.90;;;;;;4979863;28;20141;-71
2022/01/14 06:42:02;;;;;;;;;;;-0.10;99.90;;;;;;4998646;28;21036;-71
2022/01/14 06:44:29;;;;;;;;;;;-0.10;99.90;;;;;;4982722;28;21174;-71
2022/01/14 06:46:57;;;;;;;;;;;-0.20;99.90;;;;;;4989119;28;20087;-70
2022/01/14 06:49:25;;;;;;;;;;;-0.30;99.90;;;;;;4982631;28;20068;-71
2022/01/14 06:51:52;;;;;;;;;;;-0.40;99.90;;;;;;5000067;28;20080;-71
2022/01/14 06:54:20;;;;;;;;;;;-0.50;99.90;;;;;;4983738;28;21270;-71
2022/01/14 06:56:47;;;;;;;;;;;-0.70;99.90;;;;;;4999670;28;21946;-71
2022/01/14 06:59:14;;;;;;;;;;;-0.70;99.90;;;;;;4978532;28;21076;-71
2022/01/14 07:01:41;;;;;;;;;;;-0.80;99.90;;;;;;4975096;28;20214;-71
2022/01/14 07:04:08;;;;;;;;;;;-0.80;99.90;;;;;;4978853;28;20060;-71
2022/01/14 07:06:37;;;;;;;;;;;-0.80;99.90;;;;;;4983645;28;20068;-71
2022/01/14 07:09:05;;;;;;;;;;;-0.80;99.90;;;;;;4987256;28;20081;-69
2022/01/14 07:11:36;;;;;;;;;;;-0.90;99.90;;;;;;4994933;28;20063;-72
2022/01/14 07:14:03;;;;;;;;;;;-0.80;99.90;;;;;;5003703;28;20170;-71
2022/01/14 07:16:32;;;;;;;;;;;-0.90;99.90;;;;;;5003547;28;21077;-70
2022/01/14 07:19:00;;;;;;;;;;;-0.80;99.90;;;;;;5002287;28;20075;-71
2022/01/14 07:21:27;;;;;;;;;;;-0.80;99.90;;;;;;5004544;28;20052;-70
2022/01/14 07:23:56;;;;;;;;;;;-0.80;99.90;;;;;;5007289;28;20077;-70
2022/01/14 07:26:23;;;;;;;;;;;-0.90;99.90;;;;;;5007319;28;20149;-70
2022/01/14 07:28:50;;;;;;;;;;;-0.90;99.90;;;;;;5006249;28;20082;-69
2022/01/14 07:31:17;;;;;;;;;;;-0.90;99.90;;;;;;5006064;28;20153;-70
2022/01/14 07:33:44;;;;;;;;;;;-0.90;99.90;;;;;;5006163;28;20078;-70
2022/01/14 07:36:11;;;;;;;;;;;-0.90;99.90;;;;;;5006855;28;20107;-71
2022/01/14 07:38:38;;;;;;;;;;;-0.90;99.90;;;;;;5003075;28;21056;-70
2022/01/14 07:41:07;;;;;;;;;;;-0.90;99.90;;;;;;4986255;28;21144;-71
2022/01/14 07:43:35;;;;;;;;;;;-0.80;99.90;;;;;;4986803;28;20076;-72
2022/01/14 07:46:02;;;;;;;;;;;-0.70;99.90;;;;;;4986555;28;20059;-72
2022/01/14 07:48:29;;;;;;;;;;;-0.60;99.90;;;;;;4986093;28;20068;-71
2022/01/14 07:50:57;;;;;;;;;;;-0.60;99.90;;;;;;4985638;28;20131;-72
2022/01/14 07:53:24;;;;;;;;;;;-0.60;99.90;;;;;;4986333;28;20066;-72
2022/01/14 07:55:51;;;;;;;;;;;-0.50;99.90;;;;;;4986628;28;20061;-72
2022/01/14 07:58:20;;;;;;;;;;;-0.40;99.90;;;;;;4986171;28;20078;-71
2022/01/14 08:00:47;;;;;;;;;;;-0.40;99.90;;;;;;4985413;28;20060;-71
2022/01/14 08:03:14;;;;;;;;;;;-0.40;99.90;;;;;;4984636;28;20102;-70
2022/01/14 08:05:42;;;;;;;;;;;-0.40;99.90;;;;;;4984224;28;21216;-70
2022/01/14 08:08:09;;;;;;;;;;;-0.40;99.90;;;;;;4985528;28;20069;-70
2022/01/14 08:10:38;;;;;;;;;;;-0.40;99.90;;;;;;4979174;28;20104;-70
2022/01/14 08:13:05;;;;;;;;;;;-0.50;99.90;;;;;;4984057;28;20075;-70
2022/01/14 08:15:33;;;;;;;;;;;-0.50;99.90;;;;;;4983387;28;21096;-70
2022/01/14 08:18:01;;;;;;;;;;;-0.40;99.90;;;;;;4985021;28;20088;-70
2022/01/14 08:20:28;;;;;;;;;;;-0.40;99.90;;;;;;4983247;28;20338;-71
2022/01/14 08:22:55;;;;;;;;;;;-0.40;99.90;;;;;;4984730;28;20091;-70
2022/01/14 08:25:22;;;;;;;;;;;-0.30;99.90;;;;;;4984310;28;20059;-70
2022/01/14 08:27:49;;;;;;;;;;;-0.30;99.90;;;;;;4983777;28;20060;-72
2022/01/14 08:30:17;;;;;;;;;;;-0.20;99.90;;;;;;4980360;28;20092;-72
2022/01/14 08:32:46;;;;;;;;;;;-0.10;99.90;;;;;;4984416;28;20083;-71
2022/01/14 08:35:13;;;;;;;;;;;0.00;99.90;;;;;;4984595;28;20077;-71
2022/01/14 08:37:40;;;;;;;;;;;0.00;99.90;;;;;;4982892;28;20077;-70
2022/01/14 08:40:08;;;;;;;;;;;0.20;99.90;;;;;;4977808;28;20069;-70
2022/01/14 08:42:36;;;;;;;;;;;0.30;99.90;;;;;;4983700;28;20167;-71
2022/01/14 08:45:03;;;;;;;;;;;0.50;99.90;;;;;;4986556;28;20061;-71
2022/01/14 08:47:30;;;;;;;;;;;0.60;99.90;;;;;;4986734;28;20069;-70
2022/01/14 08:49:58;;;;;;;;;;;0.70;99.90;;;;;;4979801;28;20052;-71
2022/01/14 08:52:27;;;;;;;;;;;0.80;99.90;;;;;;5000404;28;21203;-71
2022/01/14 08:54:54;;;;;;;;;;;0.90;99.90;;;;;;4995724;28;20122;-71
2022/01/14 08:57:21;;;;;;;;;;;0.90;99.90;;;;;;4983235;28;20068;-71
2022/01/14 08:59:48;;;;;;;;;;;1.00;99.90;;;;;;4984436;28;20224;-70
2022/01/14 09:02:16;;;;;;;;;;;1.10;99.90;;;;;;4993039;28;20179;-69
2022/01/14 09:04:44;;;;;;;;;;;1.10;99.90;;;;;;4984200;28;20078;-70
2022/01/14 09:07:13;;;;;;;;;;;1.20;99.90;;;;;;4985078;28;21066;-68
2022/01/14 09:09:40;;;;;;;;;;;1.30;99.90;;;;;;4990855;28;20200;-70
2022/01/14 09:12:08;;;;;;;;;;;1.40;99.90;;;;;;4985597;28;20069;-70
2022/01/14 09:14:35;;;;;;;;;;;1.50;99.90;;;;;;4979876;28;20076;-70
2022/01/14 09:17:03;;;;;;;;;;;1.60;99.90;;;;;;4993282;28;20068;-70
2022/01/14 09:19:30;;;;;;;;;;;1.70;99.90;;;;;;4979860;28;20060;-71
2022/01/14 09:21:58;;;;;;;;;;;1.80;99.90;;;;;;4985308;28;20060;-70
2022/01/14 09:24:26;;;;;;;;;;;1.90;99.90;;;;;;4986185;28;21113;-71
2022/01/14 09:26:53;;;;;;;;;;;1.90;99.90;;;;;;4986583;28;20549;-70
2022/01/14 09:29:21;;;;;;;;;;;2.00;99.90;;;;;;4980928;28;20060;-70
2022/01/14 09:31:48;;;;;;;;;;;2.10;99.90;;;;;;4985636;28;20265;-70
2022/01/14 09:34:15;;;;;;;;;;;2.20;99.90;;;;;;5002441;28;20285;-70
2022/01/14 09:36:42;;;;;;;;;;;2.30;99.90;;;;;;4985935;28;20113;-70
2022/01/14 09:39:09;;;;;;;;;;;2.40;99.90;;;;;;5001505;28;20089;-70
2022/01/14 09:41:38;;;;;;;;;;;2.50;99.90;;;;;;5000656;28;20103;-70
2022/01/14 09:44:06;;;;;;;;;;;2.60;99.90;;;;;;5001089;28;20108;-70
2022/01/14 09:46:33;;;;;;;;;;;2.70;99.90;;;;;;4985495;28;20092;-70
2022/01/14 09:49:00;;;;;;;;;;;2.80;99.90;;;;;;4984884;28;21224;-70
2022/01/14 09:51:28;;;;;;;;;;;2.90;99.90;;;;;;4985289;28;20330;-70
2022/01/14 09:53:55;;;;;;;;;;;3.10;99.90;;;;;;5001934;28;21149;-70
2022/01/14 09:56:22;;;;;;;;;;;3.20;99.90;;;;;;5001344;28;21177;-70
2022/01/14 09:58:51;;;;;;;;;;;3.40;99.90;;;;;;5001029;28;20075;-70
2022/01/14 10:01:19;;;;;;;;;;;3.50;99.90;;;;;;4985072;28;20094;-71
2022/01/14 10:03:52;;;;;;;;;;;3.70;99.90;;;;;;4981357;28;21130;-72
2022/01/14 10:06:35;;;;;;;;;;;3.80;99.90;;;;;;4983109;28;20075;-71
2022/01/14 10:09:04;;;;;;;;;;;4.00;99.90;;;;;;4992267;28;20069;-71
2022/01/14 10:11:31;;;;;;;;;;;4.20;99.90;;;;;;4980863;28;21107;-71
2022/01/14 10:14:04;;;;;;;;;;;4.50;99.90;;;;;;4999341;28;20104;-71
2022/01/14 10:16:31;;;;;;;;;;;4.70;99.90;;;;;;4985994;28;20082;-71
2022/01/14 10:18:58;;;;;;;;;;;5.00;99.90;;;;;;5001724;28;20159;-71
2022/01/14 10:21:31;;;;;;;;;;;5.10;99.90;;;;;;5001280;28;20076;-71
2022/01/14 10:23:59;;;;;;;;;;;5.30;99.90;;;;;;4976517;28;20339;-71
2022/01/14 10:26:27;;;;;;;;;;;5.50;99.90;;;;;;4997040;28;20070;-71
2022/01/14 10:29:01;;;;;;;;;;;5.60;99.90;;;;;;4976323;28;20143;-71
2022/01/14 10:31:34;;;;;;;;;;;5.80;99.90;;;;;;4982964;28;21180;-70
2022/01/14 10:34:11;;;;;;;;;;;5.90;99.90;;;;;;4997811;28;20067;-71
2022/01/14 10:36:38;;;;;;;;;;;6.00;99.90;;;;;;4976637;28;20076;-71
2022/01/14 10:39:22;;;;;;;;;;;6.10;99.90;;;;;;4981954;28;20068;-71
2022/01/14 10:41:49;;;;;;;;;;;6.20;99.90;;;;;;4982278;28;21144;-71
2022/01/14 10:44:27;;;;;;;;;;;6.40;99.90;;;;;;4985649;28;20170;-72
2022/01/14 10:47:11;;;;;;;;;;;6.60;99.90;;;;;;4994435;28;20274;-72
2022/01/14 10:49:39;;;;;;;;;;;6.90;99.90;;;;;;4991395;28;21242;-74
2022/01/14 10:52:10;;;;;;;;;;;8.20;99.90;;;;;;5000368;28;20157;-73
2022/01/14 10:54:40;;;;;;;;;;;11.50;99.90;;;;;;4983424;28;20077;-74
2022/01/14 10:57:14;;;;;;;;;;;13.90;99.90;;;;;;5003044;28;20059;-73
2022/01/14 10:59:41;;;;;;;;;;;15.30;99.90;;;;;;5005805;28;20094;-74
2022/01/14 11:02:23;;;;;;;;;;;16.70;99.90;;;;;;4986903;28;21176;-74
2022/01/14 11:05:12;;;;;;;;;;;16.60;99.90;;;;;;4985181;28;20149;-74
2022/01/14 11:07:40;;;;;;;;;;;16.00;99.90;;;;;;4987464;28;21139;-74
2022/01/14 11:10:15;;;;;;;;;;;16.60;99.90;;;;;;4986157;28;20141;-73
2022/01/14 11:12:42;;;;;;;;;;;17.20;99.90;;;;;;4981090;28;21216;-74
2022/01/14 11:15:10;;;;;;;;;;;17.60;99.90;;;;;;4983216;28;20289;-74
2022/01/14 11:17:38;;;;;;;;;;;18.50;99.90;;;;;;4986893;28;21036;-74
2022/01/14 11:20:06;;;;;;;;;;;18.70;99.90;;;;;;4984407;28;20238;-71
2022/01/14 11:25:20;;;;;;;;;;;18.90;99.90;;;;;;4984665;28;21294;-72
2022/01/14 11:27:48;;;;;;;;;;;20.00;99.90;;;;;;4984712;28;21144;-73
2022/01/14 11:30:15;;;;;;;;;;;19.80;99.90;;;;;;4987618;28;20060;-73
2022/01/14 11:32:52;;;;;;;;;;;18.90;99.90;;;;;;5003698;28;20093;-71
2022/01/14 11:35:24;;;;;;;;;;;18.70;99.90;;;;;;4986612;28;20182;-73
2022/01/14 11:37:53;;;;;;;;;;;18.50;99.90;;;;;;5002967;28;21286;-70
2022/01/14 11:40:20;;;;;;;;;;;18.40;99.90;;;;;;4984143;28;20162;-71
2022/01/14 11:42:48;;;;;;;;;;;18.60;99.90;;;;;;4999876;28;21141;-71
2022/01/14 11:45:16;;;;;;;;;;;18.90;99.90;;;;;;5000625;28;20067;-73
2022/01/14 11:47:51;;;;;;;;;;;19.60;99.90;;;;;;4986782;28;20162;-72
2022/01/14 11:50:37;;;;;;;;;;;20.00;99.90;;;;;;4982165;28;20077;-71
2022/01/14 11:53:06;;;;;;;;;;;19.80;99.90;;;;;;4983122;28;20060;-72
2022/01/14 11:55:38;;;;;;;;;;;20.20;99.90;;;;;;4986556;28;20075;-71
2022/01/14 11:58:06;;;;;;;;;;;20.40;99.90;;;;;;4986959;28;20075;-71
2022/01/14 12:00:37;;;;;;;;;;;20.90;99.90;;;;;;4985393;28;20133;-71
2022/01/14 12:03:26;;;;;;;;;;;20.90;99.90;;;;;;5001781;28;20076;-70
2022/01/14 12:05:54;;;;;;;;;;;20.10;99.90;;;;;;4984887;28;20068;-71
2022/01/14 12:08:23;;;;;;;;;;;19.90;99.90;;;;;;4999146;28;20060;-71
2022/01/14 12:11:01;;;;;;;;;;;20.10;99.90;;;;;;5001771;28;20084;-71
2022/01/14 12:13:36;;;;;;;;;;;20.40;99.90;;;;;;4999739;28;20344;-70
2022/01/14 12:16:05;;;;;;;;;;;20.80;99.90;;;;;;4985629;28;20134;-71
2022/01/14 12:18:53;;;;;;;;;;;20.60;99.90;;;;;;4983127;28;20069;-71
2022/01/14 12:21:20;;;;;;;;;;;20.70;99.90;;;;;;4983367;28;21143;-71
2022/01/14 12:23:48;;;;;;;;;;;20.30;99.90;;;;;;5000868;28;20178;-71
2022/01/14 12:26:17;;;;;;;;;;;20.50;99.90;;;;;;4984445;28;20073;-71
2022/01/14 12:28:44;;;;;;;;;;;20.30;99.90;;;;;;4985620;28;21124;-71
2022/01/14 12:31:11;;;;;;;;;;;20.30;99.90;;;;;;4984711;28;20101;-70
2022/01/14 12:33:40;;;;;;;;;;;20.20;99.90;;;;;;4984342;28;20174;-72
2022/01/14 12:36:11;;;;;;;;;;;20.50;99.90;;;;;;4984247;28;20076;-70
2022/01/14 12:38:39;;;;;;;;;;;21.10;99.90;;;;;;4980997;28;20068;-70
2022/01/14 12:41:15;;;;;;;;;;;21.20;99.90;;;;;;4996281;28;20295;-72
2022/01/14 12:43:49;;;;;;;;;;;22.00;99.90;;;;;;4985105;28;20075;-71
2022/01/14 12:46:34;;;;;;;;;;;21.80;99.90;;;;;;4984765;28;20194;-71
2022/01/14 12:49:07;;;;;;;;;;;21.50;99.90;;;;;;4995092;28;20261;-72
2022/01/14 12:51:34;;;;;;;;;;;21.90;99.90;;;;;;4984133;28;20097;-71
2022/01/14 12:54:04;;;;;;;;;;;21.30;99.90;;;;;;4984303;28;21295;-71
2022/01/14 12:56:34;;;;;;;;;;;20.20;99.90;;;;;;4983905;28;21126;-71
2022/01/14 12:59:02;;;;;;;;;;;20.10;99.90;;;;;;4983591;28;20060;-71
2022/01/14 13:01:34;;;;;;;;;;;18.20;99.90;;;;;;4983635;28;21157;-70
2022/01/14 13:04:03;;;;;;;;;;;16.50;99.90;;;;;;4985476;28;21129;-71
2022/01/14 13:06:40;;;;;;;;;;;14.90;99.90;;;;;;4982630;28;20067;-70
2022/01/14 13:09:08;;;;;;;;;;;13.90;99.90;;;;;;4979590;28;21096;-71
2022/01/14 13:11:47;;;;;;;;;;;15.30;99.90;;;;;;4998228;28;20070;-71
2022/01/14 13:14:18;;;;;;;;;;;15.40;99.90;;;;;;4980647;28;20082;-71
2022/01/14 13:16:46;;;;;;;;;;;16.10;99.90;;;;;;4983219;28;20121;-71
2022/01/14 13:19:23;;;;;;;;;;;16.30;99.90;;;;;;4982384;28;20080;-71
2022/01/14 13:21:50;;;;;;;;;;;14.50;99.90;;;;;;4984009;28;21174;-70
2022/01/14 13:24:18;;;;;;;;;;;13.00;99.90;;;;;;4991199;28;21163;-70
2022/01/14 13:26:57;;;;;;;;;;;11.50;99.90;;;;;;4984650;28;20102;-71
2022/01/14 13:29:26;;;;;;;;;;;10.50;99.90;;;;;;4999682;28;20188;-71
2022/01/14 13:31:54;;;;;;;;;;;9.60;99.90;;;;;;4971389;28;20066;-71
2022/01/14 13:34:21;;;;;;;;;;;9.10;99.90;;;;;;4982936;28;20215;-72
2022/01/14 13:36:48;;;;;;;;;;;8.80;99.90;;;;;;4983784;28;21219;-71
2022/01/14 13:39:16;;;;;;;;;;;8.40;99.90;;;;;;4978236;28;20141;-71
2022/01/14 13:41:43;;;;;;;;;;;8.10;99.90;;;;;;4987475;28;21024;-71
2022/01/14 13:44:19;;;;;;;;;;;7.60;99.90;;;;;;4984200;28;20075;-71
2022/01/14 13:46:49;;;;;;;;;;;7.20;99.90;;;;;;5000040;28;20069;-72
2022/01/14 13:49:20;;;;;;;;;;;6.90;99.90;;;;;;5000174;28;20067;-71
2022/01/14 13:52:00;;;;;;;;;;;6.70;99.90;;;;;;4999805;28;20077;-71
2022/01/14 13:54:27;;;;;;;;;;;6.70;99.90;;;;;;4985014;28;20116;-72
2022/01/14 13:56:54;;;;;;;;;;;6.60;99.90;;;;;;4983891;28;21127;-72
2022/01/14 13:59:23;;;;;;;;;;;6.50;99.90;;;;;;4977238;28;20069;-72
2022/01/14 14:01:52;;;;;;;;;;;6.50;99.90;;;;;;4999466;28;20167;-72
2022/01/14 14:04:26;;;;;;;;;;;6.60;99.90;;;;;;4983898;28;20269;-72
2022/01/14 14:07:04;;;;;;;;;;;6.60;99.90;;;;;;4977462;28;20206;-72
2022/01/14 14:09:37;;;;;;;;;;;6.50;99.90;;;;;;4988374;28;20191;-73
2022/01/14 14:12:25;;;;;;;;;;;6.30;99.90;;;;;;4984539;28;20061;-72
2022/01/14 14:17:39;;;;;;;;;;;6.30;99.90;;;;;;4980953;28;20060;-72
2022/01/14 14:20:07;;;;;;;;;;;6.30;99.90;;;;;;4981489;28;20162;-72
2022/01/14 14:22:36;;;;;;;;;;;6.10;99.90;;;;;;4982305;28;21178;-71
2022/01/14 14:25:08;;;;;;;;;;;6.00;99.90;;;;;;4998938;28;20424;-71
2022/01/14 14:27:36;;;;;;;;;;;5.90;99.90;;;;;;4982143;28;20085;-72
2022/01/14 14:30:09;;;;;;;;;;;5.90;99.90;;;;;;4997215;28;20083;-70
2022/01/14 14:32:37;;;;;;;;;;;5.90;99.90;;;;;;4982988;28;20100;-71
2022/01/14 14:35:07;;;;;;;;;;;5.90;99.90;;;;;;4999014;28;20076;-71
2022/01/14 14:37:37;;;;;;;;;;;5.90;99.90;;;;;;4981987;28;21653;-73
2022/01/14 14:40:05;;;;;;;;;;;5.90;99.90;;;;;;4997817;28;20060;-71
2022/01/14 14:42:33;;;;;;;;;;;5.90;99.90;;;;;;4983263;28;20254;-72
2022/01/14 14:45:00;;;;;;;;;;;5.80;99.90;;;;;;4992238;28;20134;-72
2022/01/14 14:47:29;;;;;;;;;;;5.70;99.90;;;;;;4986226;28;20113;-73
2022/01/14 14:49:56;;;;;;;;;;;5.70;99.90;;;;;;4982362;28;20164;-73